Rogers, AR

11:55 AM CDT en Agosto 29, 2015 (GMT -0500)
Stoney Point | | Change Station
CLOSE
Current Station
Estación meteorológica personal
Location: Rogers, AR
Altura: 1388 ft
Estaciones meteorológicas cercanas

Alt 1388 ft 36.31 °N, 94.10 °W | Updated 5 seconds ago

Despejado
Despejado
88.2 ° F
Sensación térmica 91 ° F
N
4.3
Viento Variable Viento desde Oeste

Hoy
Alta -- | Baja -- ° F
--% Posibilidad de precipitaciones
Ayer
Alta -- | Baja -- ° F
Precip. -- pul
6:45 AM 7:48 PM
Luna llena, 100% visible
Presión 30.01 pul
Visibilidad 10.0 Millas
Nubes Despejado
Índice de calor 91 ° F
Punto de rocío 67 ° F
Humedad 50%
Precipitaciones 0.00 pul
Espesor de la nieve No disponible.
UV 7 de una escala de 12
Polen 9.30 de una escala de 12
Calidad del aire No disponible.
Flu Activity No disponible.
METAR KROG 291557Z 19011KT 10SM CLR 27/18 A3005 RMK AO2 SLP162 T02670183 $
Presión 30.01 pul
Visibilidad 10.0 Millas
Nubes Despejado
Índice de calor 91 ° F
Punto de rocío 67 ° F
Humedad 50%
Precipitaciones 0.00 pul
Espesor de la nieve No disponible.
UV 7 de una escala de 12
Polen 9.30 de una escala de 12
Calidad del aire No disponible.
Flu Activity No disponible.
METAR KROG 291557Z 19011KT 10SM CLR 27/18 A3005 RMK AO2 SLP162 T02670183 $

10-Day Weather Forecast

×

Almanac

Astronomía

Aug. 29, 2015 Salida Puesta
Hora real
Crepúsculo civil
Crepúsculo náutico
Crepúsculo astronómico
Luna
Horas de luz
Horas de luz
Tomorrow will be .
, % of the Moon is Illuminated

Extremos de hoy

Máximos del estado Bajos del estado

Community

WunderPhotos

Upload Photos

1,850,722 ¡fotos cargadas!

WunderBlogs® & News

Nearby

Calidad del aire

  Calidad del aire Índice AQ Contaminante
Not available.

Grosos de nieve

Estación Profundido Altura

Actividad de terremotos

Ciudad Distance Mag. Tiempo y dato
Magnitud mínima muestra es 2,5.

Temperaturas de aguas costeras

Lugar Temperatura

Stations

Estaciones meteorológicas cercanas

Ubicación de la estación Temp. Vientos helados Punto de rocío Humedad Viento Precip. Alt Actualizado Tipo